Time;durP1;ratioP1;P1;durP2;ratioP2;P2;SDS_P1;SDS_P2;PMS_P1;PMS_P2;Temp;Humidity;BMP_temperature;BMP_pressure;BME280_temperature;BME280_humidity;BME280_pressure;Samples;Min_cycle;Max_cycle;Signal;HPM_P1;HPM_P2
2023/05/31 00:00:42;;;;;;;;;;;13.80;55.20;;;;;;5038387;28;19917;-65
2023/05/31 00:03:08;;;;;;;;;;;13.80;55.10;;;;;;5048174;28;19913;-67
2023/05/31 00:05:33;;;;;;;;;;;13.80;55.40;;;;;;5053856;28;20391;-66
2023/05/31 00:07:58;;;;;;;;;;;13.70;55.40;;;;;;5054655;28;20284;-63
2023/05/31 00:10:24;;;;;;;;;;;13.70;55.30;;;;;;5054068;28;20421;-66
2023/05/31 00:12:49;;;;;;;;;;;13.70;55.40;;;;;;5054702;28;19985;-66
2023/05/31 00:15:15;;;;;;;;;;;13.70;55.40;;;;;;5053720;28;20043;-66
2023/05/31 00:17:40;;;;;;;;;;;13.70;55.90;;;;;;5054061;28;20288;-66
2023/05/31 00:20:06;;;;;;;;;;;13.60;55.80;;;;;;5055959;28;19917;-65
2023/05/31 00:22:32;;;;;;;;;;;13.70;55.90;;;;;;5063958;28;19913;-65
2023/05/31 00:24:57;;;;;;;;;;;13.60;55.90;;;;;;5053737;28;19943;-65
2023/05/31 00:27:23;;;;;;;;;;;13.60;55.80;;;;;;5053330;28;19925;-65
2023/05/31 00:29:48;;;;;;;;;;;13.50;55.80;;;;;;5053954;28;19914;-65
2023/05/31 00:32:14;;;;;;;;;;;13.50;55.80;;;;;;5053345;28;19920;-65
2023/05/31 00:34:40;;;;;;;;;;;13.50;57.00;;;;;;5053428;28;19924;-65
2023/05/31 00:37:05;;;;;;;;;;;13.60;57.10;;;;;;5068314;28;19908;-65
2023/05/31 00:39:30;;;;;;;;;;;13.70;57.50;;;;;;5053575;28;19983;-65
2023/05/31 00:41:56;;;;;;;;;;;13.70;58.10;;;;;;5053699;28;19916;-65
2023/05/31 00:44:21;;;;;;;;;;;13.70;58.50;;;;;;5053361;28;19913;-65
2023/05/31 00:46:47;;;;;;;;;;;13.70;58.40;;;;;;5053344;28;20056;-65
2023/05/31 00:49:13;;;;;;;;;;;13.70;58.10;;;;;;5052651;28;20368;-65
2023/05/31 00:51:38;;;;;;;;;;;13.70;57.90;;;;;;5053074;28;20007;-65
2023/05/31 00:54:04;;;;;;;;;;;13.70;57.80;;;;;;5053336;28;19917;-65
2023/05/31 00:56:30;;;;;;;;;;;13.70;58.20;;;;;;5053217;28;20288;-65
2023/05/31 00:58:56;;;;;;;;;;;13.70;58.30;;;;;;5053364;28;19917;-64
2023/05/31 01:01:25;;;;;;;;;;;13.70;58.20;;;;;;5053330;28;20019;-65
2023/05/31 01:03:56;;;;;;;;;;;13.70;58.30;;;;;;5052934;28;19917;-65
2023/05/31 01:06:23;;;;;;;;;;;13.70;58.10;;;;;;5052641;28;19913;-66
2023/05/31 01:08:49;;;;;;;;;;;13.70;58.00;;;;;;5053102;28;19921;-65
2023/05/31 01:11:21;;;;;;;;;;;13.60;57.90;;;;;;5052948;28;19908;-66
2023/05/31 01:14:01;;;;;;;;;;;13.70;57.90;;;;;;5052802;28;19917;-65
2023/05/31 01:16:36;;;;;;;;;;;13.60;57.80;;;;;;5052563;28;19913;-65
2023/05/31 01:19:06;;;;;;;;;;;13.50;57.70;;;;;;5052876;28;20327;-64
2023/05/31 01:21:51;;;;;;;;;;;13.50;57.60;;;;;;5052808;28;20027;-65
2023/05/31 01:24:24;;;;;;;;;;;13.40;57.50;;;;;;5053043;28;19917;-65
2023/05/31 01:26:51;;;;;;;;;;;13.40;57.40;;;;;;5045889;28;20251;-64
2023/05/31 01:29:18;;;;;;;;;;;13.30;57.60;;;;;;5032914;28;19961;-65
2023/05/31 01:31:45;;;;;;;;;;;13.30;57.90;;;;;;5033353;28;19909;-66
2023/05/31 01:34:11;;;;;;;;;;;13.30;58.30;;;;;;5052435;28;20364;-65
2023/05/31 01:36:37;;;;;;;;;;;13.30;58.40;;;;;;5063203;28;20007;-68
2023/05/31 01:39:03;;;;;;;;;;;13.40;58.30;;;;;;5053690;28;19917;-69
2023/05/31 01:41:29;;;;;;;;;;;13.30;58.30;;;;;;5034737;28;19924;-68
2023/05/31 01:43:54;;;;;;;;;;;13.30;58.40;;;;;;5052330;28;20380;-68
2023/05/31 01:46:20;;;;;;;;;;;13.30;58.50;;;;;;5052277;28;19908;-69
2023/05/31 01:48:46;;;;;;;;;;;13.30;58.30;;;;;;5051801;28;19920;-69
2023/05/31 01:51:14;;;;;;;;;;;13.30;58.30;;;;;;5052503;28;19970;-69
2023/05/31 01:53:40;;;;;;;;;;;13.20;58.30;;;;;;5052981;28;20408;-69
2023/05/31 01:56:07;;;;;;;;;;;13.20;58.40;;;;;;5050969;28;20059;-69
2023/05/31 01:58:33;;;;;;;;;;;13.20;58.20;;;;;;5014773;28;19913;-69
2023/05/31 02:00:59;;;;;;;;;;;13.20;58.30;;;;;;5031417;28;20012;-69
2023/05/31 02:03:24;;;;;;;;;;;13.10;58.20;;;;;;5031504;28;20048;-69
2023/05/31 02:06:00;;;;;;;;;;;13.10;58.20;;;;;;5032479;28;19914;-69
2023/05/31 02:08:26;;;;;;;;;;;13.00;58.40;;;;;;5032573;28;19971;-69
2023/05/31 02:10:52;;;;;;;;;;;13.00;58.30;;;;;;5032255;28;19913;-69
2023/05/31 02:13:18;;;;;;;;;;;13.00;58.20;;;;;;5032346;28;19914;-69
2023/05/31 02:15:43;;;;;;;;;;;12.90;58.10;;;;;;5032359;28;19917;-69
2023/05/31 02:18:08;;;;;;;;;;;12.90;58.10;;;;;;5032873;28;19913;-69
2023/05/31 02:20:34;;;;;;;;;;;12.80;58.10;;;;;;5043541;28;19912;-69
2023/05/31 02:22:59;;;;;;;;;;;12.80;58.10;;;;;;5071896;28;20361;-69
2023/05/31 02:25:25;;;;;;;;;;;12.70;58.10;;;;;;5071930;28;19965;-69
2023/05/31 02:27:51;;;;;;;;;;;12.70;58.10;;;;;;5072204;28;19916;-69
2023/05/31 02:30:16;;;;;;;;;;;12.70;58.20;;;;;;5072372;28;19928;-69
2023/05/31 02:32:42;;;;;;;;;;;12.70;58.10;;;;;;5072263;28;19913;-68
2023/05/31 02:35:09;;;;;;;;;;;12.70;58.10;;;;;;5072142;28;20395;-69
2023/05/31 02:37:35;;;;;;;;;;;12.60;58.10;;;;;;5052771;28;19909;-69
2023/05/31 02:40:03;;;;;;;;;;;12.60;58.20;;;;;;5051887;28;19928;-69
2023/05/31 02:42:28;;;;;;;;;;;12.50;58.30;;;;;;5051931;28;20348;-69
2023/05/31 02:44:54;;;;;;;;;;;12.50;58.30;;;;;;5051869;28;19962;-69
2023/05/31 02:47:19;;;;;;;;;;;12.50;58.30;;;;;;5051946;28;19917;-68
2023/05/31 02:49:45;;;;;;;;;;;12.50;58.40;;;;;;5051371;28;19963;-69
2023/05/31 02:52:10;;;;;;;;;;;12.50;58.30;;;;;;5051358;28;19913;-69
2023/05/31 02:54:36;;;;;;;;;;;12.50;58.40;;;;;;5051540;28;20007;-69
2023/05/31 02:57:01;;;;;;;;;;;12.50;58.40;;;;;;5051581;28;20279;-69
2023/05/31 02:59:26;;;;;;;;;;;12.40;58.50;;;;;;5051672;28;20340;-69
2023/05/31 03:01:52;;;;;;;;;;;12.40;58.50;;;;;;5051595;28;20226;-69
2023/05/31 03:04:17;;;;;;;;;;;12.40;58.50;;;;;;5051479;28;19963;-69
2023/05/31 03:06:43;;;;;;;;;;;12.40;58.50;;;;;;5051225;28;19927;-69
2023/05/31 03:09:08;;;;;;;;;;;12.40;58.50;;;;;;5051471;28;19917;-69
2023/05/31 03:11:34;;;;;;;;;;;12.40;58.50;;;;;;5051085;28;19909;-69
2023/05/31 03:13:59;;;;;;;;;;;12.40;58.40;;;;;;5051282;28;19920;-69
2023/05/31 03:16:25;;;;;;;;;;;12.30;58.40;;;;;;5051696;28;20280;-69
2023/05/31 03:18:50;;;;;;;;;;;12.30;58.60;;;;;;5051455;28;20019;-69
2023/05/31 03:21:16;;;;;;;;;;;12.30;58.60;;;;;;5050002;28;20322;-69
2023/05/31 03:23:41;;;;;;;;;;;12.30;58.80;;;;;;5051742;28;20448;-69
2023/05/31 03:26:07;;;;;;;;;;;12.30;58.80;;;;;;5051577;28;19913;-70
2023/05/31 03:28:32;;;;;;;;;;;12.30;58.80;;;;;;5050886;28;19970;-69
2023/05/31 03:30:58;;;;;;;;;;;12.40;59.00;;;;;;5051417;28;20364;-69
2023/05/31 03:33:23;;;;;;;;;;;12.50;59.40;;;;;;5055207;28;19916;-69
2023/05/31 03:35:49;;;;;;;;;;;12.60;59.60;;;;;;5041689;28;19919;-70
2023/05/31 03:38:14;;;;;;;;;;;12.80;59.60;;;;;;5074970;28;19920;-70
2023/05/31 03:40:39;;;;;;;;;;;12.90;59.70;;;;;;5074884;28;19951;-70
2023/05/31 03:43:07;;;;;;;;;;;13.20;59.90;;;;;;5074644;28;19916;-69
2023/05/31 03:45:33;;;;;;;;;;;13.30;60.10;;;;;;5074620;28;20007;-69
2023/05/31 03:47:58;;;;;;;;;;;13.60;60.50;;;;;;5075140;28;19920;-69
2023/05/31 03:50:23;;;;;;;;;;;13.80;60.70;;;;;;5073410;28;19913;-69
2023/05/31 03:52:49;;;;;;;;;;;14.00;60.80;;;;;;5074473;28;19916;-69
2023/05/31 03:55:14;;;;;;;;;;;14.30;60.80;;;;;;5074665;28;19912;-69
2023/05/31 03:57:40;;;;;;;;;;;14.60;60.70;;;;;;5074355;28;19962;-70
2023/05/31 04:00:06;;;;;;;;;;;14.90;60.70;;;;;;5075059;28;19939;-70
2023/05/31 04:02:31;;;;;;;;;;;15.20;60.60;;;;;;5074381;28;19920;-70
2023/05/31 04:04:57;;;;;;;;;;;15.50;60.50;;;;;;5074962;28;20284;-70
2023/05/31 04:07:22;;;;;;;;;;;15.90;60.50;;;;;;5074152;28;20464;-67
2023/05/31 04:09:48;;;;;;;;;;;16.30;60.50;;;;;;5074271;28;19950;-64
2023/05/31 04:12:13;;;;;;;;;;;16.70;60.30;;;;;;5074300;28;19917;-64
2023/05/31 04:14:39;;;;;;;;;;;17.00;60.20;;;;;;5074160;28;20364;-64
2023/05/31 04:17:05;;;;;;;;;;;17.40;60.00;;;;;;5074111;28;19979;-65
2023/05/31 04:19:30;;;;;;;;;;;17.80;59.80;;;;;;5074570;28;19914;-64
2023/05/31 04:21:55;;;;;;;;;;;18.20;59.50;;;;;;5056851;28;19920;-64
2023/05/31 04:24:21;;;;;;;;;;;18.50;59.20;;;;;;5054134;28;19936;-67
2023/05/31 04:26:46;;;;;;;;;;;18.90;59.10;;;;;;5053819;28;19912;-65
2023/05/31 04:29:12;;;;;;;;;;;19.20;58.80;;;;;;5053946;28;19924;-65
2023/05/31 04:31:38;;;;;;;;;;;19.60;58.30;;;;;;5053953;28;20438;-64
2023/05/31 04:34:03;;;;;;;;;;;20.00;57.80;;;;;;5054389;28;20004;-64
2023/05/31 04:36:29;;;;;;;;;;;20.30;57.50;;;;;;5063680;28;19908;-65
2023/05/31 04:38:55;;;;;;;;;;;20.70;56.80;;;;;;5073820;28;20031;-64
2023/05/31 04:41:25;;;;;;;;;;;20.90;55.80;;;;;;5073875;28;19958;-64
2023/05/31 04:43:54;;;;;;;;;;;21.20;55.40;;;;;;5073323;28;20006;-64
2023/05/31 04:46:21;;;;;;;;;;;21.50;54.60;;;;;;5073905;28;19909;-65
2023/05/31 04:48:49;;;;;;;;;;;21.80;54.00;;;;;;5073386;28;19921;-65
2023/05/31 04:51:16;;;;;;;;;;;22.20;53.60;;;;;;5073819;28;19927;-65
2023/05/31 04:53:41;;;;;;;;;;;22.50;53.00;;;;;;5073307;28;19968;-65
2023/05/31 04:56:08;;;;;;;;;;;23.00;51.70;;;;;;5073780;28;19952;-67
2023/05/31 04:58:33;;;;;;;;;;;23.30;49.90;;;;;;5074048;28;19916;-64
2023/05/31 05:00:59;;;;;;;;;;;23.70;49.00;;;;;;5073684;28;20269;-65
2023/05/31 05:03:25;;;;;;;;;;;24.00;48.10;;;;;;5073430;28;19913;-66
2023/05/31 05:05:51;;;;;;;;;;;24.30;46.80;;;;;;5073794;28;19920;-65
2023/05/31 05:08:17;;;;;;;;;;;24.80;46.10;;;;;;5074308;28;20003;-65
2023/05/31 05:10:43;;;;;;;;;;;25.10;45.80;;;;;;5073857;28;20002;-66
2023/05/31 05:13:08;;;;;;;;;;;25.50;44.20;;;;;;5073869;28;19969;-68
2023/05/31 05:15:34;;;;;;;;;;;25.80;43.60;;;;;;5073478;28;19912;-66
2023/05/31 05:17:59;;;;;;;;;;;26.10;42.60;;;;;;5073161;28;19913;-66
2023/05/31 05:20:25;;;;;;;;;;;26.40;42.20;;;;;;5068557;28;20364;-66
2023/05/31 05:22:51;;;;;;;;;;;26.80;41.10;;;;;;5053049;28;19957;-66
2023/05/31 05:25:17;;;;;;;;;;;27.10;40.00;;;;;;5053288;28;19912;-66
2023/05/31 05:27:42;;;;;;;;;;;27.40;39.40;;;;;;5052810;28;20130;-66
2023/05/31 05:30:08;;;;;;;;;;;27.70;38.70;;;;;;5053598;28;20350;-65
2023/05/31 05:32:34;;;;;;;;;;;28.00;38.10;;;;;;5052977;28;19975;-65
2023/05/31 05:34:59;;;;;;;;;;;28.20;37.10;;;;;;5052867;28;19920;-65
2023/05/31 05:37:25;;;;;;;;;;;28.50;36.60;;;;;;5070343;28;19913;-67
2023/05/31 05:39:50;;;;;;;;;;;28.80;36.00;;;;;;5072794;28;20003;-66
2023/05/31 05:42:16;;;;;;;;;;;28.90;34.80;;;;;;5072537;28;19959;-66
2023/05/31 05:44:41;;;;;;;;;;;29.10;34.20;;;;;;5072794;28;19958;-67
2023/05/31 05:47:07;;;;;;;;;;;29.30;33.80;;;;;;5072709;28;19912;-66
2023/05/31 05:49:33;;;;;;;;;;;29.30;33.40;;;;;;5072649;28;20450;-66
2023/05/31 05:52:00;;;;;;;;;;;29.50;33.30;;;;;;5072258;28;21268;-66
2023/05/31 05:54:26;;;;;;;;;;;29.80;33.20;;;;;;5063992;28;19913;-66
2023/05/31 05:56:51;;;;;;;;;;;30.00;32.30;;;;;;5051808;28;19917;-66
2023/05/31 05:59:17;;;;;;;;;;;30.20;32.40;;;;;;5051732;28;19913;-66
2023/05/31 06:01:42;;;;;;;;;;;30.50;32.00;;;;;;5051829;28;19917;-67
2023/05/31 06:04:07;;;;;;;;;;;30.70;31.70;;;;;;5051525;28;19958;-66
2023/05/31 06:06:33;;;;;;;;;;;30.90;31.20;;;;;;5050561;28;19966;-67
2023/05/31 06:08:58;;;;;;;;;;;31.20;31.10;;;;;;5051154;28;19952;-66
2023/05/31 06:11:25;;;;;;;;;;;31.30;30.70;;;;;;5051408;28;20426;-67
2023/05/31 06:13:56;;;;;;;;;;;31.50;29.80;;;;;;5049318;28;19913;-66
2023/05/31 06:16:22;;;;;;;;;;;31.50;29.80;;;;;;5051529;28;19959;-67
2023/05/31 06:18:47;;;;;;;;;;;31.70;29.70;;;;;;5047598;28;19943;-67
2023/05/31 06:21:13;;;;;;;;;;;31.80;29.70;;;;;;5052311;28;19913;-67
2023/05/31 06:23:38;;;;;;;;;;;32.10;29.30;;;;;;5050836;28;20273;-66
2023/05/31 06:26:04;;;;;;;;;;;32.40;29.60;;;;;;5048307;28;19920;-66
2023/05/31 06:28:29;;;;;;;;;;;32.80;29.20;;;;;;5051341;28;20361;-67
2023/05/31 06:30:54;;;;;;;;;;;33.10;28.70;;;;;;5051902;28;19995;-66
2023/05/31 06:33:20;;;;;;;;;;;33.30;28.40;;;;;;5033082;28;20368;-67
2023/05/31 06:35:46;;;;;;;;;;;33.70;28.00;;;;;;5054992;28;19919;-64
2023/05/31 06:38:16;;;;;;;;;;;33.90;27.60;;;;;;5057216;28;19917;-65
2023/05/31 06:40:43;;;;;;;;;;;34.20;27.20;;;;;;5059117;28;19932;-66
2023/05/31 06:43:08;;;;;;;;;;;34.30;26.70;;;;;;5051260;28;19936;-65
2023/05/31 06:45:34;;;;;;;;;;;34.60;26.60;;;;;;5051082;28;20376;-66
2023/05/31 06:47:59;;;;;;;;;;;34.80;26.50;;;;;;5048816;28;19928;-66
2023/05/31 06:50:25;;;;;;;;;;;35.20;26.50;;;;;;5051929;28;20272;-67
2023/05/31 06:52:50;;;;;;;;;;;35.60;26.10;;;;;;5051225;28;20304;-66
2023/05/31 06:55:16;;;;;;;;;;;35.90;25.10;;;;;;5051643;28;19920;-65
2023/05/31 06:57:41;;;;;;;;;;;36.00;24.90;;;;;;5050541;28;20207;-66
2023/05/31 07:00:07;;;;;;;;;;;36.10;24.60;;;;;;5048138;28;19917;-65
2023/05/31 07:02:32;;;;;;;;;;;36.30;24.60;;;;;;5046593;28;19962;-66
2023/05/31 07:04:59;;;;;;;;;;;36.40;24.20;;;;;;5048575;28;20332;-65
2023/05/31 07:07:25;;;;;;;;;;;36.60;24.40;;;;;;5058312;28;19931;-65
2023/05/31 07:09:51;;;;;;;;;;;36.80;23.50;;;;;;5063383;28;20004;-65
2023/05/31 07:12:16;;;;;;;;;;;36.80;23.10;;;;;;5049221;28;19924;-66
2023/05/31 07:14:42;;;;;;;;;;;36.80;23.00;;;;;;5051342;28;20328;-66
2023/05/31 07:17:07;;;;;;;;;;;37.10;23.20;;;;;;5045304;28;19975;-67
2023/05/31 07:19:42;;;;;;;;;;;37.40;23.30;;;;;;5048591;28;19932;-66
2023/05/31 07:22:07;;;;;;;;;;;37.70;22.90;;;;;;5044130;28;19983;-66
2023/05/31 07:24:33;;;;;;;;;;;38.00;22.90;;;;;;5050588;28;20333;-66
2023/05/31 07:26:58;;;;;;;;;;;38.30;22.70;;;;;;5053986;28;20423;-66
2023/05/31 07:29:24;;;;;;;;;;;38.70;22.30;;;;;;5046536;28;19970;-68
2023/05/31 07:31:49;;;;;;;;;;;38.70;21.70;;;;;;5054154;28;19967;-66
2023/05/31 07:34:15;;;;;;;;;;;38.60;21.00;;;;;;5052966;28;20403;-66
2023/05/31 07:36:41;;;;;;;;;;;38.50;21.20;;;;;;5066269;28;21021;-66
2023/05/31 07:39:08;;;;;;;;;;;38.40;21.10;;;;;;5057949;28;20000;-66
2023/05/31 07:41:34;;;;;;;;;;;38.40;21.40;;;;;;5054775;28;20360;-66
2023/05/31 07:44:01;;;;;;;;;;;38.50;20.90;;;;;;5053386;28;19913;-66
2023/05/31 07:46:26;;;;;;;;;;;38.40;21.00;;;;;;5052778;28;19962;-68
2023/05/31 07:48:53;;;;;;;;;;;38.60;21.10;;;;;;5054945;28;20011;-66
2023/05/31 07:51:19;;;;;;;;;;;38.80;21.00;;;;;;5054157;28;20329;-66
2023/05/31 07:53:46;;;;;;;;;;;39.00;20.80;;;;;;5055058;28;20043;-64
2023/05/31 07:56:12;;;;;;;;;;;39.00;20.80;;;;;;5053543;28;19920;-64
2023/05/31 07:58:37;;;;;;;;;;;39.10;20.70;;;;;;5053913;28;19925;-66
2023/05/31 08:01:03;;;;;;;;;;;39.20;20.70;;;;;;5037479;28;19916;-66
2023/05/31 08:03:28;;;;;;;;;;;39.20;20.50;;;;;;5046781;28;19920;-69
2023/05/31 08:05:54;;;;;;;;;;;39.20;20.30;;;;;;5065170;28;19913;-65
2023/05/31 08:08:19;;;;;;;;;;;39.10;20.20;;;;;;5054483;28;19924;-66
2023/05/31 08:10:45;;;;;;;;;;;39.00;20.30;;;;;;5053364;28;19912;-66
2023/05/31 08:13:10;;;;;;;;;;;38.90;20.40;;;;;;5054567;28;20356;-66
2023/05/31 08:15:36;;;;;;;;;;;39.00;20.50;;;;;;5052528;28;20321;-66
2023/05/31 08:18:02;;;;;;;;;;;39.30;20.70;;;;;;5053382;28;19916;-66
2023/05/31 08:20:27;;;;;;;;;;;39.40;20.30;;;;;;5053562;28;19916;-66
2023/05/31 08:22:53;;;;;;;;;;;39.60;20.60;;;;;;5054446;28;19920;-66
2023/05/31 08:25:19;;;;;;;;;;;39.80;19.70;;;;;;5053028;28;19956;-66
2023/05/31 08:27:44;;;;;;;;;;;39.70;19.20;;;;;;5054112;28;20424;-66
2023/05/31 08:30:10;;;;;;;;;;;39.30;19.20;;;;;;5051997;28;19919;-67
2023/05/31 08:32:36;;;;;;;;;;;39.30;19.70;;;;;;5054441;28;20011;-67
2023/05/31 08:35:01;;;;;;;;;;;39.30;19.60;;;;;;5053450;28;20389;-66
2023/05/31 08:37:27;;;;;;;;;;;39.50;19.70;;;;;;5071815;28;19917;-66
2023/05/31 08:39:52;;;;;;;;;;;39.70;19.20;;;;;;5059360;28;20359;-66
2023/05/31 08:42:24;;;;;;;;;;;39.80;19.10;;;;;;5053628;28;19928;-65
2023/05/31 08:44:50;;;;;;;;;;;39.90;19.10;;;;;;5051737;28;20422;-65
2023/05/31 08:47:31;;;;;;;;;;;40.00;18.90;;;;;;5053722;28;19917;-65
2023/05/31 08:49:58;;;;;;;;;;;40.20;19.00;;;;;;5052464;28;20380;-66
2023/05/31 08:52:23;;;;;;;;;;;40.50;19.00;;;;;;5052606;28;20253;-66
2023/05/31 08:54:50;;;;;;;;;;;40.50;19.00;;;;;;5053429;28;19909;-64
2023/05/31 08:57:16;;;;;;;;;;;40.70;18.70;;;;;;5052714;28;19917;-66
2023/05/31 08:59:42;;;;;;;;;;;40.90;18.60;;;;;;5053708;28;20368;-65
2023/05/31 09:02:08;;;;;;;;;;;40.80;17.90;;;;;;5052975;28;19921;-65
2023/05/31 09:04:34;;;;;;;;;;;40.70;18.20;;;;;;5053216;28;20331;-65
2023/05/31 09:07:01;;;;;;;;;;;40.90;18.40;;;;;;5052645;28;19923;-70
2023/05/31 09:09:26;;;;;;;;;;;41.10;18.20;;;;;;5053151;28;19913;-70
2023/05/31 09:11:52;;;;;;;;;;;41.30;18.30;;;;;;5051413;28;19939;-70
2023/05/31 09:14:17;;;;;;;;;;;41.60;18.50;;;;;;5053095;28;19955;-69
2023/05/31 09:16:43;;;;;;;;;;;41.90;17.90;;;;;;5052032;28;19971;-69
2023/05/31 09:19:08;;;;;;;;;;;41.90;17.40;;;;;;5048579;28;19913;-70
2023/05/31 09:21:38;;;;;;;;;;;41.80;17.20;;;;;;5051744;28;19920;-70
2023/05/31 09:24:04;;;;;;;;;;;41.60;17.30;;;;;;5051766;28;20380;-69
2023/05/31 09:26:32;;;;;;;;;;;41.60;17.50;;;;;;5052740;28;19913;-70
2023/05/31 09:28:58;;;;;;;;;;;41.90;17.50;;;;;;5045718;28;20326;-70
2023/05/31 09:31:24;;;;;;;;;;;42.10;17.60;;;;;;5045265;28;19916;-70
2023/05/31 09:33:54;;;;;;;;;;;42.30;17.20;;;;;;5051699;28;19912;-71
2023/05/31 09:36:27;;;;;;;;;;;42.30;16.60;;;;;;5059733;28;19959;-70
2023/05/31 09:39:07;;;;;;;;;;;42.50;15.80;;;;;;5050142;28;19981;-70
2023/05/31 09:41:33;;;;;;;;;;;42.40;16.10;;;;;;5052524;28;19913;-70
2023/05/31 09:43:59;;;;;;;;;;;42.50;16.10;;;;;;5052635;28;19916;-70
2023/05/31 09:46:24;;;;;;;;;;;42.60;15.60;;;;;;5052385;28;19954;-70
2023/05/31 09:49:00;;;;;;;;;;;42.30;14.70;;;;;;5046622;28;20055;-70
2023/05/31 09:51:26;;;;;;;;;;;41.80;15.00;;;;;;5050102;28;19920;-70
2023/05/31 09:53:55;;;;;;;;;;;41.60;15.30;;;;;;5051428;28;19965;-70
2023/05/31 09:56:21;;;;;;;;;;;41.50;15.20;;;;;;5051131;28;19947;-70
2023/05/31 09:58:47;;;;;;;;;;;41.30;15.40;;;;;;5049814;28;19917;-70
2023/05/31 10:01:14;;;;;;;;;;;41.30;15.80;;;;;;5050743;28;19916;-70
2023/05/31 10:03:40;;;;;;;;;;;41.50;15.90;;;;;;5052957;28;20000;-70
2023/05/31 10:06:06;;;;;;;;;;;41.30;15.60;;;;;;5051450;28;20347;-70
2023/05/31 10:08:32;;;;;;;;;;;41.10;15.40;;;;;;5048200;28;19931;-70
2023/05/31 10:10:59;;;;;;;;;;;40.70;15.60;;;;;;5050205;28;19917;-70
2023/05/31 10:13:26;;;;;;;;;;;40.50;15.90;;;;;;5051789;28;19956;-69
2023/05/31 10:15:53;;;;;;;;;;;40.40;15.90;;;;;;5051150;28;20368;-70
2023/05/31 10:18:21;;;;;;;;;;;40.20;16.20;;;;;;5048256;28;20493;-68
2023/05/31 10:20:51;;;;;;;;;;;39.90;16.10;;;;;;5049740;28;19913;-69
2023/05/31 10:23:20;;;;;;;;;;;39.60;16.20;;;;;;5051927;28;19917;-69
2023/05/31 10:25:52;;;;;;;;;;;39.30;16.60;;;;;;5049214;28;19943;-69
2023/05/31 10:28:20;;;;;;;;;;;39.40;16.60;;;;;;5047440;28;19974;-69
2023/05/31 10:30:46;;;;;;;;;;;39.20;16.70;;;;;;5050919;28;19916;-69
2023/05/31 10:33:12;;;;;;;;;;;38.90;17.00;;;;;;5049962;28;20019;-69
2023/05/31 10:35:38;;;;;;;;;;;38.70;17.20;;;;;;5053578;28;19920;-69
2023/05/31 10:38:03;;;;;;;;;;;38.50;17.50;;;;;;5052039;28;20007;-68
2023/05/31 10:40:47;;;;;;;;;;;38.50;18.00;;;;;;5056627;28;19913;-66
2023/05/31 10:43:20;;;;;;;;;;;38.40;17.60;;;;;;5051925;28;20360;-66
2023/05/31 10:45:48;;;;;;;;;;;38.00;17.90;;;;;;5050623;28;19959;-66
2023/05/31 10:48:22;;;;;;;;;;;37.50;18.50;;;;;;5045932;28;20361;-66
2023/05/31 10:50:51;;;;;;;;;;;37.50;19.10;;;;;;5051689;28;19971;-66
2023/05/31 10:53:16;;;;;;;;;;;37.40;19.00;;;;;;5051394;28;20308;-66
2023/05/31 10:55:43;;;;;;;;;;;37.30;19.30;;;;;;5050900;28;19912;-67
2023/05/31 10:58:29;;;;;;;;;;;37.30;19.20;;;;;;5045912;28;20376;-67
2023/05/31 11:00:55;;;;;;;;;;;37.00;18.90;;;;;;5051765;28;19967;-69
2023/05/31 11:03:22;;;;;;;;;;;36.70;19.40;;;;;;5048378;28;19918;-66
2023/05/31 11:05:54;;;;;;;;;;;36.60;19.60;;;;;;5051421;28;20412;-66
2023/05/31 11:08:20;;;;;;;;;;;36.60;19.80;;;;;;5046232;28;19929;-66
2023/05/31 11:10:45;;;;;;;;;;;36.50;19.60;;;;;;5051184;28;19908;-66
2023/05/31 11:13:11;;;;;;;;;;;36.40;19.70;;;;;;5048653;28;19950;-66
2023/05/31 11:15:40;;;;;;;;;;;36.30;19.70;;;;;;5051392;28;20348;-66
2023/05/31 11:18:09;;;;;;;;;;;36.30;19.90;;;;;;5046977;28;19979;-66
2023/05/31 11:20:37;;;;;;;;;;;36.40;19.90;;;;;;5031419;28;20004;-66
2023/05/31 11:23:18;;;;;;;;;;;36.40;19.50;;;;;;5046652;28;20355;-66
2023/05/31 11:25:43;;;;;;;;;;;36.20;19.50;;;;;;5051062;28;20299;-66
2023/05/31 11:28:10;;;;;;;;;;;35.90;19.60;;;;;;5044685;28;20015;-68
2023/05/31 11:30:36;;;;;;;;;;;35.70;19.80;;;;;;5051003;28;20352;-66
2023/05/31 11:33:03;;;;;;;;;;;35.60;20.10;;;;;;5050103;28;19956;-66
2023/05/31 11:35:32;;;;;;;;;;;35.50;20.30;;;;;;5052475;28;20383;-66
2023/05/31 11:38:02;;;;;;;;;;;35.60;20.10;;;;;;5052403;28;21355;-67
2023/05/31 11:40:29;;;;;;;;;;;35.50;20.30;;;;;;5050382;28;20375;-66
2023/05/31 11:43:01;;;;;;;;;;;35.60;20.70;;;;;;5050217;28;20382;-66
2023/05/31 11:45:28;;;;;;;;;;;35.60;20.30;;;;;;5050933;28;19909;-66
2023/05/31 11:48:14;;;;;;;;;;;35.60;20.40;;;;;;5048059;28;20399;-67
2023/05/31 11:50:41;;;;;;;;;;;35.50;20.40;;;;;;5049893;28;19967;-65
2023/05/31 11:53:06;;;;;;;;;;;35.50;20.30;;;;;;5052416;28;19917;-67
2023/05/31 11:55:35;;;;;;;;;;;35.40;20.60;;;;;;5063355;28;19921;-66
2023/05/31 11:58:01;;;;;;;;;;;35.30;20.40;;;;;;5055656;28;19929;-66
2023/05/31 12:00:28;;;;;;;;;;;35.20;20.80;;;;;;5052540;28;20931;-66
2023/05/31 12:02:56;;;;;;;;;;;34.90;21.00;;;;;;5054058;28;19971;-66
2023/05/31 12:05:22;;;;;;;;;;;34.80;21.30;;;;;;5053797;28;19995;-68
2023/05/31 12:07:47;;;;;;;;;;;34.70;21.60;;;;;;5052288;28;20075;-68
2023/05/31 12:10:13;;;;;;;;;;;34.70;21.70;;;;;;5051202;28;19978;-67
2023/05/31 12:12:39;;;;;;;;;;;34.90;21.60;;;;;;5052754;28;19920;-66
2023/05/31 12:15:04;;;;;;;;;;;35.00;21.30;;;;;;5054519;28;19920;-65
2023/05/31 12:17:30;;;;;;;;;;;34.90;21.10;;;;;;5052089;28;19928;-65
2023/05/31 12:19:56;;;;;;;;;;;34.90;21.20;;;;;;5047524;28;19919;-65
2023/05/31 12:22:21;;;;;;;;;;;35.10;21.30;;;;;;5050864;28;19923;-66
2023/05/31 12:24:47;;;;;;;;;;;35.30;21.50;;;;;;5052873;28;19968;-65
2023/05/31 12:27:13;;;;;;;;;;;35.40;21.30;;;;;;5053547;28;19971;-65
2023/05/31 12:29:39;;;;;;;;;;;35.40;21.30;;;;;;5051761;28;19913;-65
2023/05/31 12:32:05;;;;;;;;;;;35.50;21.40;;;;;;5051827;28;19916;-65
2023/05/31 12:34:36;;;;;;;;;;;35.60;21.10;;;;;;5052287;28;20368;-66
2023/05/31 12:37:05;;;;;;;;;;;35.60;21.00;;;;;;5065731;28;20383;-64
2023/05/31 12:39:30;;;;;;;;;;;35.40;21.10;;;;;;5071031;28;19915;-65
2023/05/31 12:41:57;;;;;;;;;;;35.30;21.30;;;;;;5052787;28;20009;-65
2023/05/31 12:44:22;;;;;;;;;;;35.20;21.30;;;;;;5052798;28;19913;-65
2023/05/31 12:46:48;;;;;;;;;;;35.20;21.20;;;;;;5053637;28;19966;-65
2023/05/31 12:49:19;;;;;;;;;;;34.90;21.20;;;;;;5052308;28;19916;-65
2023/05/31 12:51:44;;;;;;;;;;;34.60;21.70;;;;;;5053364;28;19982;-65
2023/05/31 12:54:11;;;;;;;;;;;34.30;21.90;;;;;;5051827;28;19959;-66
2023/05/31 12:56:37;;;;;;;;;;;34.10;22.30;;;;;;5035409;28;19916;-65
2023/05/31 12:59:02;;;;;;;;;;;33.80;22.40;;;;;;5049636;28;19912;-67
2023/05/31 13:01:28;;;;;;;;;;;33.80;22.70;;;;;;5051123;28;19913;-66
2023/05/31 13:03:53;;;;;;;;;;;33.70;22.40;;;;;;5041249;28;19916;-65
2023/05/31 13:06:19;;;;;;;;;;;33.60;22.70;;;;;;5051475;28;20062;-66
2023/05/31 13:08:44;;;;;;;;;;;33.50;22.80;;;;;;5052884;28;19966;-65
2023/05/31 13:11:10;;;;;;;;;;;33.50;22.80;;;;;;5052094;28;19913;-65
2023/05/31 13:13:35;;;;;;;;;;;33.50;22.90;;;;;;5050867;28;19917;-65
2023/05/31 13:16:01;;;;;;;;;;;33.40;22.40;;;;;;5052244;28;19917;-65
2023/05/31 13:18:27;;;;;;;;;;;33.20;22.70;;;;;;5053517;28;19920;-66
2023/05/31 13:20:52;;;;;;;;;;;33.30;22.80;;;;;;5051715;28;19913;-66
2023/05/31 13:23:18;;;;;;;;;;;33.40;22.90;;;;;;5053653;28;19924;-66
2023/05/31 13:25:43;;;;;;;;;;;33.50;22.70;;;;;;5054181;28;19923;-66
2023/05/31 13:28:08;;;;;;;;;;;33.40;22.50;;;;;;5052632;28;20352;-66
2023/05/31 13:30:34;;;;;;;;;;;33.30;22.70;;;;;;5051536;28;19912;-65
2023/05/31 13:32:59;;;;;;;;;;;33.20;23.00;;;;;;5052898;28;20015;-66
2023/05/31 13:35:25;;;;;;;;;;;33.30;23.10;;;;;;5053382;28;19920;-66
2023/05/31 13:37:50;;;;;;;;;;;33.30;22.60;;;;;;5073320;28;19931;-65
2023/05/31 13:40:16;;;;;;;;;;;33.20;22.50;;;;;;5072527;28;19908;-65
2023/05/31 13:42:41;;;;;;;;;;;33.00;22.50;;;;;;5071924;28;19929;-67
2023/05/31 13:45:07;;;;;;;;;;;32.90;22.70;;;;;;5052185;28;19920;-65
2023/05/31 13:47:32;;;;;;;;;;;32.90;23.00;;;;;;5052360;28;20505;-65
2023/05/31 13:49:58;;;;;;;;;;;32.80;22.90;;;;;;5052425;28;19992;-65
2023/05/31 13:52:23;;;;;;;;;;;32.70;23.10;;;;;;5052510;28;19916;-66
2023/05/31 13:54:49;;;;;;;;;;;32.60;23.10;;;;;;5052227;28;19913;-65
2023/05/31 13:57:14;;;;;;;;;;;32.60;23.10;;;;;;5052530;28;19917;-65
2023/05/31 13:59:39;;;;;;;;;;;32.70;22.80;;;;;;5065249;28;19916;-66
2023/05/31 14:02:05;;;;;;;;;;;32.70;23.30;;;;;;5058895;28;19971;-65
2023/05/31 14:04:31;;;;;;;;;;;32.60;23.40;;;;;;5051504;28;19915;-65
2023/05/31 14:06:57;;;;;;;;;;;32.60;23.40;;;;;;5052399;28;19921;-65
2023/05/31 14:09:22;;;;;;;;;;;32.60;23.30;;;;;;5051358;28;19963;-66
2023/05/31 14:11:48;;;;;;;;;;;32.50;23.50;;;;;;5051746;28;19920;-66